sensor_id;sensor_type;location;lat;lon;timestamp;P1;durP1;ratioP1;P2;durP2;ratioP2
12812;SDS011;6471;50.932;6.934;2022-07-18T00:00:49;1.10;;;0.97;;
12812;SDS011;6471;50.932;6.934;2022-07-18T00:03:15;1.13;;;1.00;;
12812;SDS011;6471;50.932;6.934;2022-07-18T00:05:41;1.53;;;1.20;;
12812;SDS011;6471;50.932;6.934;2022-07-18T00:08:07;1.93;;;1.33;;
12812;SDS011;6471;50.932;6.934;2022-07-18T00:10:33;1.23;;;1.13;;
12812;SDS011;6471;50.932;6.934;2022-07-18T00:12:59;2.37;;;1.20;;
12812;SDS011;6471;50.932;6.934;2022-07-18T00:15:25;1.30;;;1.20;;
12812;SDS011;6471;50.932;6.934;2022-07-18T00:17:52;1.23;;;1.07;;
12812;SDS011;6471;50.932;6.934;2022-07-18T00:20:18;1.10;;;1.00;;
12812;SDS011;6471;50.932;6.934;2022-07-18T00:22:44;1.20;;;1.07;;
12812;SDS011;6471;50.932;6.934;2022-07-18T00:25:10;1.33;;;1.20;;
12812;SDS011;6471;50.932;6.934;2022-07-18T00:27:36;1.40;;;1.10;;
12812;SDS011;6471;50.932;6.934;2022-07-18T00:30:03;1.17;;;1.07;;
12812;SDS011;6471;50.932;6.934;2022-07-18T00:32:29;1.07;;;0.97;;
12812;SDS011;6471;50.932;6.934;2022-07-18T00:34:56;1.23;;;1.13;;
12812;SDS011;6471;50.932;6.934;2022-07-18T00:37:22;1.10;;;1.00;;
12812;SDS011;6471;50.932;6.934;2022-07-18T00:39:48;0.90;;;0.87;;
12812;SDS011;6471;50.932;6.934;2022-07-18T00:42:14;1.30;;;1.07;;
12812;SDS011;6471;50.932;6.934;2022-07-18T00:44:40;1.50;;;1.20;;
12812;SDS011;6471;50.932;6.934;2022-07-18T00:47:06;1.27;;;1.00;;
12812;SDS011;6471;50.932;6.934;2022-07-18T00:49:32;1.30;;;1.17;;
12812;SDS011;6471;50.932;6.934;2022-07-18T00:51:58;1.13;;;1.03;;
12812;SDS011;6471;50.932;6.934;2022-07-18T00:54:25;1.10;;;0.90;;
12812;SDS011;6471;50.932;6.934;2022-07-18T00:56:51;1.23;;;1.13;;
12812;SDS011;6471;50.932;6.934;2022-07-18T00:59:17;1.20;;;1.10;;
12812;SDS011;6471;50.932;6.934;2022-07-18T01:01:43;1.50;;;1.20;;
12812;SDS011;6471;50.932;6.934;2022-07-18T01:06:39;1.57;;;1.07;;
12812;SDS011;6471;50.932;6.934;2022-07-18T01:09:05;1.00;;;0.90;;
12812;SDS011;6471;50.932;6.934;2022-07-18T01:11:32;1.47;;;1.10;;
12812;SDS011;6471;50.932;6.934;2022-07-18T01:13:58;1.37;;;1.17;;
12812;SDS011;6471;50.932;6.934;2022-07-18T01:16:25;1.57;;;1.10;;
12812;SDS011;6471;50.932;6.934;2022-07-18T01:18:51;1.17;;;1.00;;
12812;SDS011;6471;50.932;6.934;2022-07-18T01:21:17;1.10;;;0.90;;
12812;SDS011;6471;50.932;6.934;2022-07-18T01:23:43;1.20;;;1.10;;
12812;SDS011;6471;50.932;6.934;2022-07-18T01:26:10;1.30;;;1.10;;
12812;SDS011;6471;50.932;6.934;2022-07-18T01:28:37;1.53;;;1.20;;
12812;SDS011;6471;50.932;6.934;2022-07-18T01:31:03;1.13;;;1.03;;
12812;SDS011;6471;50.932;6.934;2022-07-18T01:33:33;1.20;;;0.90;;
12812;SDS011;6471;50.932;6.934;2022-07-18T01:35:59;1.13;;;1.00;;
12812;SDS011;6471;50.932;6.934;2022-07-18T01:38:27;1.83;;;1.20;;
12812;SDS011;6471;50.932;6.934;2022-07-18T01:40:53;1.10;;;1.00;;
12812;SDS011;6471;50.932;6.934;2022-07-18T01:43:20;1.00;;;0.90;;
12812;SDS011;6471;50.932;6.934;2022-07-18T01:45:47;2.37;;;1.10;;
12812;SDS011;6471;50.932;6.934;2022-07-18T01:48:13;1.10;;;1.00;;
12812;SDS011;6471;50.932;6.934;2022-07-18T01:50:40;1.70;;;1.10;;
12812;SDS011;6471;50.932;6.934;2022-07-18T01:53:06;1.10;;;1.00;;
12812;SDS011;6471;50.932;6.934;2022-07-18T01:55:32;1.10;;;1.00;;
12812;SDS011;6471;50.932;6.934;2022-07-18T01:57:58;1.10;;;0.90;;
12812;SDS011;6471;50.932;6.934;2022-07-18T02:00:24;1.43;;;1.20;;
12812;SDS011;6471;50.932;6.934;2022-07-18T02:02:50;1.47;;;1.10;;
12812;SDS011;6471;50.932;6.934;2022-07-18T02:05:16;1.27;;;1.07;;
12812;SDS011;6471;50.932;6.934;2022-07-18T02:07:43;1.67;;;1.20;;
12812;SDS011;6471;50.932;6.934;2022-07-18T02:10:12;1.43;;;1.10;;
12812;SDS011;6471;50.932;6.934;2022-07-18T02:12:39;1.43;;;1.13;;
12812;SDS011;6471;50.932;6.934;2022-07-18T02:15:06;2.10;;;1.27;;
12812;SDS011;6471;50.932;6.934;2022-07-18T02:17:32;1.43;;;1.20;;
12812;SDS011;6471;50.932;6.934;2022-07-18T02:19:59;2.73;;;1.17;;
12812;SDS011;6471;50.932;6.934;2022-07-18T02:22:25;1.30;;;1.20;;
12812;SDS011;6471;50.932;6.934;2022-07-18T02:24:51;1.30;;;1.10;;
12812;SDS011;6471;50.932;6.934;2022-07-18T02:27:18;1.20;;;1.00;;
12812;SDS011;6471;50.932;6.934;2022-07-18T02:29:44;1.47;;;1.10;;
12812;SDS011;6471;50.932;6.934;2022-07-18T02:32:10;1.10;;;1.00;;
12812;SDS011;6471;50.932;6.934;2022-07-18T02:34:36;1.20;;;1.10;;
12812;SDS011;6471;50.932;6.934;2022-07-18T02:37:02;0.90;;;0.90;;
12812;SDS011;6471;50.932;6.934;2022-07-18T02:39:29;1.67;;;1.10;;
12812;SDS011;6471;50.932;6.934;2022-07-18T02:41:55;1.20;;;1.00;;
12812;SDS011;6471;50.932;6.934;2022-07-18T02:44:21;1.17;;;1.07;;
12812;SDS011;6471;50.932;6.934;2022-07-18T02:46:48;1.13;;;1.00;;
12812;SDS011;6471;50.932;6.934;2022-07-18T02:49:14;1.40;;;1.20;;
12812;SDS011;6471;50.932;6.934;2022-07-18T02:51:58;1.57;;;1.10;;
12812;SDS011;6471;50.932;6.934;2022-07-18T02:54:24;1.20;;;1.10;;
12812;SDS011;6471;50.932;6.934;2022-07-18T02:56:51;1.00;;;0.90;;
12812;SDS011;6471;50.932;6.934;2022-07-18T02:59:17;1.10;;;1.00;;
12812;SDS011;6471;50.932;6.934;2022-07-18T03:01:43;1.33;;;1.13;;
12812;SDS011;6471;50.932;6.934;2022-07-18T03:04:09;1.30;;;1.00;;
12812;SDS011;6471;50.932;6.934;2022-07-18T03:06:35;1.83;;;1.17;;
12812;SDS011;6471;50.932;6.934;2022-07-18T03:09:02;1.30;;;1.20;;
12812;SDS011;6471;50.932;6.934;2022-07-18T03:11:28;1.20;;;1.10;;
12812;SDS011;6471;50.932;6.934;2022-07-18T03:13:55;1.47;;;1.10;;
12812;SDS011;6471;50.932;6.934;2022-07-18T03:16:21;1.20;;;1.07;;
12812;SDS011;6471;50.932;6.934;2022-07-18T03:18:47;1.00;;;0.80;;
12812;SDS011;6471;50.932;6.934;2022-07-18T03:21:13;1.93;;;1.20;;
12812;SDS011;6471;50.932;6.934;2022-07-18T03:23:39;1.40;;;1.27;;
12812;SDS011;6471;50.932;6.934;2022-07-18T03:26:05;1.57;;;1.20;;
12812;SDS011;6471;50.932;6.934;2022-07-18T03:28:31;1.20;;;1.10;;
12812;SDS011;6471;50.932;6.934;2022-07-18T03:30:57;1.57;;;1.00;;
12812;SDS011;6471;50.932;6.934;2022-07-18T03:33:24;1.47;;;1.20;;
12812;SDS011;6471;50.932;6.934;2022-07-18T03:35:50;1.30;;;1.10;;
12812;SDS011;6471;50.932;6.934;2022-07-18T03:38:16;1.10;;;1.00;;
12812;SDS011;6471;50.932;6.934;2022-07-18T03:40:42;1.00;;;0.90;;
12812;SDS011;6471;50.932;6.934;2022-07-18T03:43:08;1.20;;;1.03;;
12812;SDS011;6471;50.932;6.934;2022-07-18T03:45:34;1.53;;;1.20;;
12812;SDS011;6471;50.932;6.934;2022-07-18T03:48:06;1.20;;;1.03;;
12812;SDS011;6471;50.932;6.934;2022-07-18T03:50:32;1.27;;;1.10;;
12812;SDS011;6471;50.932;6.934;2022-07-18T03:52:59;1.33;;;1.10;;
12812;SDS011;6471;50.932;6.934;2022-07-18T03:55:26;1.47;;;1.03;;
12812;SDS011;6471;50.932;6.934;2022-07-18T03:57:52;1.77;;;1.27;;
12812;SDS011;6471;50.932;6.934;2022-07-18T04:00:18;1.30;;;1.20;;
12812;SDS011;6471;50.932;6.934;2022-07-18T04:02:45;1.50;;;1.20;;
12812;SDS011;6471;50.932;6.934;2022-07-18T04:05:12;1.20;;;1.10;;
12812;SDS011;6471;50.932;6.934;2022-07-18T04:07:39;1.97;;;1.23;;
12812;SDS011;6471;50.932;6.934;2022-07-18T04:10:06;1.10;;;1.00;;
12812;SDS011;6471;50.932;6.934;2022-07-18T04:12:32;1.20;;;1.10;;
12812;SDS011;6471;50.932;6.934;2022-07-18T04:14:59;1.27;;;1.10;;
12812;SDS011;6471;50.932;6.934;2022-07-18T04:17:25;1.30;;;1.20;;
12812;SDS011;6471;50.932;6.934;2022-07-18T04:19:52;1.33;;;1.10;;
12812;SDS011;6471;50.932;6.934;2022-07-18T04:22:18;1.23;;;1.00;;
12812;SDS011;6471;50.932;6.934;2022-07-18T04:24:44;1.30;;;1.10;;
12812;SDS011;6471;50.932;6.934;2022-07-18T04:27:10;1.23;;;1.07;;
12812;SDS011;6471;50.932;6.934;2022-07-18T04:29:37;1.30;;;1.00;;
12812;SDS011;6471;50.932;6.934;2022-07-18T04:32:03;1.10;;;1.00;;
12812;SDS011;6471;50.932;6.934;2022-07-18T04:34:29;1.20;;;1.10;;
12812;SDS011;6471;50.932;6.934;2022-07-18T04:36:55;1.50;;;1.03;;
12812;SDS011;6471;50.932;6.934;2022-07-18T04:39:21;1.27;;;1.17;;
12812;SDS011;6471;50.932;6.934;2022-07-18T04:41:47;1.20;;;1.07;;
12812;SDS011;6471;50.932;6.934;2022-07-18T04:44:14;1.73;;;1.30;;
12812;SDS011;6471;50.932;6.934;2022-07-18T04:46:40;1.30;;;1.20;;
12812;SDS011;6471;50.932;6.934;2022-07-18T04:49:06;2.23;;;1.20;;
12812;SDS011;6471;50.932;6.934;2022-07-18T04:51:32;1.30;;;1.10;;
12812;SDS011;6471;50.932;6.934;2022-07-18T04:53:58;1.33;;;1.20;;
12812;SDS011;6471;50.932;6.934;2022-07-18T04:56:24;2.10;;;1.13;;
12812;SDS011;6471;50.932;6.934;2022-07-18T04:58:50;3.17;;;1.30;;
12812;SDS011;6471;50.932;6.934;2022-07-18T05:01:16;1.20;;;1.10;;
12812;SDS011;6471;50.932;6.934;2022-07-18T05:03:42;1.33;;;1.20;;
12812;SDS011;6471;50.932;6.934;2022-07-18T05:06:08;1.50;;;1.40;;
12812;SDS011;6471;50.932;6.934;2022-07-18T05:08:34;2.57;;;1.20;;
12812;SDS011;6471;50.932;6.934;2022-07-18T05:11:00;1.60;;;1.23;;
12812;SDS011;6471;50.932;6.934;2022-07-18T05:13:27;1.63;;;1.20;;
12812;SDS011;6471;50.932;6.934;2022-07-18T05:15:53;1.90;;;1.17;;
12812;SDS011;6471;50.932;6.934;2022-07-18T05:18:19;1.60;;;1.20;;
12812;SDS011;6471;50.932;6.934;2022-07-18T05:20:45;2.10;;;1.50;;
12812;SDS011;6471;50.932;6.934;2022-07-18T05:23:13;1.77;;;1.33;;
12812;SDS011;6471;50.932;6.934;2022-07-18T05:25:40;2.40;;;1.30;;
12812;SDS011;6471;50.932;6.934;2022-07-18T05:28:06;2.43;;;1.20;;
12812;SDS011;6471;50.932;6.934;2022-07-18T05:30:32;2.43;;;1.40;;
12812;SDS011;6471;50.932;6.934;2022-07-18T05:32:58;2.27;;;1.40;;
12812;SDS011;6471;50.932;6.934;2022-07-18T05:35:24;3.07;;;1.40;;
12812;SDS011;6471;50.932;6.934;2022-07-18T05:37:50;2.70;;;1.50;;
12812;SDS011;6471;50.932;6.934;2022-07-18T05:40:16;1.30;;;1.20;;
12812;SDS011;6471;50.932;6.934;2022-07-18T05:42:43;1.40;;;1.30;;
12812;SDS011;6471;50.932;6.934;2022-07-18T05:45:09;1.30;;;1.20;;
12812;SDS011;6471;50.932;6.934;2022-07-18T05:47:35;1.80;;;1.40;;
12812;SDS011;6471;50.932;6.934;2022-07-18T05:50:02;1.37;;;1.27;;
12812;SDS011;6471;50.932;6.934;2022-07-18T05:52:28;1.77;;;1.20;;
12812;SDS011;6471;50.932;6.934;2022-07-18T05:54:54;1.87;;;1.30;;
12812;SDS011;6471;50.932;6.934;2022-07-18T05:57:20;1.90;;;1.40;;
12812;SDS011;6471;50.932;6.934;2022-07-18T05:59:47;2.97;;;1.50;;
12812;SDS011;6471;50.932;6.934;2022-07-18T06:02:13;2.33;;;1.40;;
12812;SDS011;6471;50.932;6.934;2022-07-18T06:04:39;2.53;;;1.40;;
12812;SDS011;6471;50.932;6.934;2022-07-18T06:07:05;1.87;;;1.40;;
12812;SDS011;6471;50.932;6.934;2022-07-18T06:09:31;3.10;;;1.57;;
12812;SDS011;6471;50.932;6.934;2022-07-18T06:11:58;2.10;;;1.50;;
12812;SDS011;6471;50.932;6.934;2022-07-18T06:14:25;1.97;;;1.40;;
12812;SDS011;6471;50.932;6.934;2022-07-18T06:16:51;2.33;;;1.30;;
12812;SDS011;6471;50.932;6.934;2022-07-18T06:19:17;4.43;;;2.70;;
12812;SDS011;6471;50.932;6.934;2022-07-18T06:21:43;4.37;;;2.80;;
12812;SDS011;6471;50.932;6.934;2022-07-18T06:24:10;4.40;;;1.87;;
12812;SDS011;6471;50.932;6.934;2022-07-18T06:26:36;4.50;;;2.00;;
12812;SDS011;6471;50.932;6.934;2022-07-18T06:29:02;3.20;;;1.70;;
12812;SDS011;6471;50.932;6.934;2022-07-18T06:31:28;3.10;;;1.57;;
12812;SDS011;6471;50.932;6.934;2022-07-18T06:33:54;2.57;;;1.63;;
12812;SDS011;6471;50.932;6.934;2022-07-18T06:36:20;3.03;;;2.20;;
12812;SDS011;6471;50.932;6.934;2022-07-18T06:38:49;3.10;;;2.17;;
12812;SDS011;6471;50.932;6.934;2022-07-18T06:41:15;2.10;;;1.63;;
12812;SDS011;6471;50.932;6.934;2022-07-18T06:43:41;2.87;;;1.60;;
12812;SDS011;6471;50.932;6.934;2022-07-18T06:46:08;3.30;;;2.00;;
12812;SDS011;6471;50.932;6.934;2022-07-18T06:48:34;2.77;;;1.70;;
12812;SDS011;6471;50.932;6.934;2022-07-18T06:51:01;1.77;;;1.50;;
12812;SDS011;6471;50.932;6.934;2022-07-18T06:53:27;2.60;;;1.60;;
12812;SDS011;6471;50.932;6.934;2022-07-18T06:55:54;1.70;;;1.50;;
12812;SDS011;6471;50.932;6.934;2022-07-18T06:58:20;2.63;;;1.40;;
12812;SDS011;6471;50.932;6.934;2022-07-18T07:00:55;2.90;;;1.37;;
12812;SDS011;6471;50.932;6.934;2022-07-18T07:03:22;2.60;;;1.50;;
12812;SDS011;6471;50.932;6.934;2022-07-18T07:05:57;3.10;;;1.50;;
12812;SDS011;6471;50.932;6.934;2022-07-18T07:08:32;2.67;;;1.70;;
12812;SDS011;6471;50.932;6.934;2022-07-18T07:10:59;3.47;;;1.77;;
12812;SDS011;6471;50.932;6.934;2022-07-18T07:13:25;2.67;;;1.43;;
12812;SDS011;6471;50.932;6.934;2022-07-18T07:15:51;2.67;;;1.43;;
12812;SDS011;6471;50.932;6.934;2022-07-18T07:18:17;2.07;;;1.20;;
12812;SDS011;6471;50.932;6.934;2022-07-18T07:20:43;3.67;;;1.37;;
12812;SDS011;6471;50.932;6.934;2022-07-18T07:23:10;2.00;;;1.50;;
12812;SDS011;6471;50.932;6.934;2022-07-18T07:25:39;1.50;;;1.30;;
12812;SDS011;6471;50.932;6.934;2022-07-18T07:28:05;5.17;;;1.50;;
12812;SDS011;6471;50.932;6.934;2022-07-18T07:30:32;2.00;;;1.10;;
12812;SDS011;6471;50.932;6.934;2022-07-18T07:32:59;2.17;;;1.30;;
12812;SDS011;6471;50.932;6.934;2022-07-18T07:35:25;3.03;;;1.40;;
12812;SDS011;6471;50.932;6.934;2022-07-18T07:37:52;2.40;;;1.50;;
12812;SDS011;6471;50.932;6.934;2022-07-18T07:40:19;2.00;;;1.53;;
12812;SDS011;6471;50.932;6.934;2022-07-18T07:42:45;2.07;;;1.40;;
12812;SDS011;6471;50.932;6.934;2022-07-18T07:45:12;2.30;;;1.33;;
12812;SDS011;6471;50.932;6.934;2022-07-18T07:47:39;2.50;;;1.50;;
12812;SDS011;6471;50.932;6.934;2022-07-18T07:50:05;2.80;;;1.30;;
12812;SDS011;6471;50.932;6.934;2022-07-18T07:52:32;1.90;;;1.60;;
12812;SDS011;6471;50.932;6.934;2022-07-18T07:54:58;3.67;;;1.47;;
12812;SDS011;6471;50.932;6.934;2022-07-18T07:57:24;2.13;;;1.30;;
12812;SDS011;6471;50.932;6.934;2022-07-18T07:59:51;1.40;;;1.27;;
12812;SDS011;6471;50.932;6.934;2022-07-18T08:02:17;2.60;;;1.30;;
12812;SDS011;6471;50.932;6.934;2022-07-18T08:04:43;3.07;;;1.43;;
12812;SDS011;6471;50.932;6.934;2022-07-18T08:07:09;1.90;;;1.20;;
12812;SDS011;6471;50.932;6.934;2022-07-18T08:09:36;1.10;;;1.00;;
12812;SDS011;6471;50.932;6.934;2022-07-18T08:12:05;1.83;;;1.10;;
12812;SDS011;6471;50.932;6.934;2022-07-18T08:14:31;1.43;;;1.23;;
12812;SDS011;6471;50.932;6.934;2022-07-18T08:16:58;2.70;;;1.20;;
12812;SDS011;6471;50.932;6.934;2022-07-18T08:19:24;1.73;;;1.20;;
12812;SDS011;6471;50.932;6.934;2022-07-18T08:21:50;1.50;;;1.30;;
12812;SDS011;6471;50.932;6.934;2022-07-18T08:24:16;1.52;;;1.20;;
12812;SDS011;6471;50.932;6.934;2022-07-18T08:26:42;4.18;;;1.45;;
12812;SDS011;6471;50.932;6.934;2022-07-18T08:29:11;2.35;;;1.45;;
12812;SDS011;6471;50.932;6.934;2022-07-18T08:31:40;2.67;;;1.25;;
12812;SDS011;6471;50.932;6.934;2022-07-18T08:34:06;1.75;;;1.23;;
12812;SDS011;6471;50.932;6.934;2022-07-18T08:36:32;2.33;;;1.48;;
12812;SDS011;6471;50.932;6.934;2022-07-18T08:38:58;3.95;;;1.48;;
12812;SDS011;6471;50.932;6.934;2022-07-18T08:41:25;2.95;;;1.42;;
12812;SDS011;6471;50.932;6.934;2022-07-18T08:44:01;5.28;;;1.45;;
12812;SDS011;6471;50.932;6.934;2022-07-18T08:46:30;1.98;;;1.45;;
12812;SDS011;6471;50.932;6.934;2022-07-18T08:48:58;4.15;;;1.55;;
12812;SDS011;6471;50.932;6.934;2022-07-18T08:51:24;10.80;;;1.65;;
12812;SDS011;6471;50.932;6.934;2022-07-18T08:53:50;3.15;;;1.40;;
12812;SDS011;6471;50.932;6.934;2022-07-18T08:56:17;1.60;;;1.25;;
12812;SDS011;6471;50.932;6.934;2022-07-18T08:58:43;2.47;;;1.30;;
12812;SDS011;6471;50.932;6.934;2022-07-18T09:01:47;2.20;;;1.27;;
12812;SDS011;6471;50.932;6.934;2022-07-18T09:04:07;1.33;;;1.00;;
12812;SDS011;6471;50.932;6.934;2022-07-18T09:09:16;2.75;;;1.20;;
12812;SDS011;6471;50.932;6.934;2022-07-18T09:11:50;2.05;;;1.35;;
12812;SDS011;6471;50.932;6.934;2022-07-18T09:14:27;2.00;;;1.40;;
12812;SDS011;6471;50.932;6.934;2022-07-18T09:17:00;2.22;;;1.40;;
12812;SDS011;6471;50.932;6.934;2022-07-18T09:19:27;1.27;;;1.10;;
12812;SDS011;6471;50.932;6.934;2022-07-18T09:21:53;2.40;;;1.52;;
12812;SDS011;6471;50.932;6.934;2022-07-18T09:24:19;2.42;;;1.50;;
12812;SDS011;6471;50.932;6.934;2022-07-18T09:26:45;3.72;;;1.50;;
12812;SDS011;6471;50.932;6.934;2022-07-18T09:29:15;3.00;;;1.35;;
12812;SDS011;6471;50.932;6.934;2022-07-18T09:31:48;2.03;;;1.30;;
12812;SDS011;6471;50.932;6.934;2022-07-18T09:34:15;3.67;;;1.35;;
12812;SDS011;6471;50.932;6.934;2022-07-18T09:36:57;1.52;;;1.27;;
12812;SDS011;6471;50.932;6.934;2022-07-18T09:39:23;1.63;;;1.30;;
12812;SDS011;6471;50.932;6.934;2022-07-18T09:41:49;3.40;;;1.58;;
12812;SDS011;6471;50.932;6.934;2022-07-18T09:44:16;1.40;;;1.20;;
12812;SDS011;6471;50.932;6.934;2022-07-18T09:46:58;2.38;;;1.33;;
12812;SDS011;6471;50.932;6.934;2022-07-18T09:49:28;1.90;;;1.40;;
12812;SDS011;6471;50.932;6.934;2022-07-18T09:52:01;1.10;;;1.00;;
12812;SDS011;6471;50.932;6.934;2022-07-18T09:54:40;3.33;;;1.30;;
12812;SDS011;6471;50.932;6.934;2022-07-18T09:57:06;1.60;;;1.30;;
12812;SDS011;6471;50.932;6.934;2022-07-18T09:59:32;1.50;;;1.30;;
12812;SDS011;6471;50.932;6.934;2022-07-18T10:02:00;2.92;;;1.60;;
12812;SDS011;6471;50.932;6.934;2022-07-18T10:04:26;2.13;;;1.30;;
12812;SDS011;6471;50.932;6.934;2022-07-18T10:06:52;1.90;;;1.38;;
12812;SDS011;6471;50.932;6.934;2022-07-18T10:09:19;2.83;;;1.23;;
12812;SDS011;6471;50.932;6.934;2022-07-18T10:11:45;1.65;;;1.20;;
12812;SDS011;6471;50.932;6.934;2022-07-18T10:14:11;3.25;;;1.42;;
12812;SDS011;6471;50.932;6.934;2022-07-18T10:16:37;1.50;;;1.20;;
12812;SDS011;6471;50.932;6.934;2022-07-18T10:19:03;1.35;;;1.13;;
12812;SDS011;6471;50.932;6.934;2022-07-18T10:21:30;3.28;;;1.30;;
12812;SDS011;6471;50.932;6.934;2022-07-18T10:23:56;1.38;;;1.25;;
12812;SDS011;6471;50.932;6.934;2022-07-18T10:26:26;2.72;;;1.63;;
12812;SDS011;6471;50.932;6.934;2022-07-18T10:33:54;2.03;;;1.50;;
12812;SDS011;6471;50.932;6.934;2022-07-18T10:36:20;2.80;;;1.70;;
12812;SDS011;6471;50.932;6.934;2022-07-18T10:39:03;1.42;;;1.30;;
12812;SDS011;6471;50.932;6.934;2022-07-18T10:41:30;1.45;;;1.23;;
12812;SDS011;6471;50.932;6.934;2022-07-18T10:43:56;2.00;;;1.30;;
12812;SDS011;6471;50.932;6.934;2022-07-18T10:46:22;1.30;;;1.20;;
12812;SDS011;6471;50.932;6.934;2022-07-18T10:48:49;2.42;;;1.35;;
12812;SDS011;6471;50.932;6.934;2022-07-18T10:51:16;2.70;;;1.63;;
12812;SDS011;6471;50.932;6.934;2022-07-18T10:58:56;2.85;;;1.40;;
12812;SDS011;6471;50.932;6.934;2022-07-18T11:01:23;2.83;;;1.42;;
12812;SDS011;6471;50.932;6.934;2022-07-18T11:03:50;2.00;;;1.33;;
12812;SDS011;6471;50.932;6.934;2022-07-18T11:06:16;2.70;;;1.38;;
12812;SDS011;6471;50.932;6.934;2022-07-18T11:08:42;2.20;;;1.42;;
12812;SDS011;6471;50.932;6.934;2022-07-18T11:11:09;2.55;;;1.35;;
12812;SDS011;6471;50.932;6.934;2022-07-18T11:13:37;1.65;;;1.20;;
12812;SDS011;6471;50.932;6.934;2022-07-18T11:21:20;1.58;;;1.20;;
12812;SDS011;6471;50.932;6.934;2022-07-18T11:23:48;1.52;;;1.30;;
12812;SDS011;6471;50.932;6.934;2022-07-18T11:26:19;1.40;;;1.30;;
12812;SDS011;6471;50.932;6.934;2022-07-18T11:28:45;1.95;;;1.50;;
12812;SDS011;6471;50.932;6.934;2022-07-18T11:31:13;1.90;;;1.70;;
12812;SDS011;6471;50.932;6.934;2022-07-18T11:33:44;2.65;;;1.50;;
12812;SDS011;6471;50.932;6.934;2022-07-18T11:36:11;2.03;;;1.40;;
12812;SDS011;6471;50.932;6.934;2022-07-18T11:38:41;2.08;;;1.40;;
12812;SDS011;6471;50.932;6.934;2022-07-18T11:41:11;2.22;;;1.63;;
12812;SDS011;6471;50.932;6.934;2022-07-18T11:43:37;1.75;;;1.50;;
12812;SDS011;6471;50.932;6.934;2022-07-18T11:48:30;2.63;;;1.63;;
12812;SDS011;6471;50.932;6.934;2022-07-18T11:50:56;1.73;;;1.23;;
12812;SDS011;6471;50.932;6.934;2022-07-18T11:53:22;2.05;;;1.40;;
12812;SDS011;6471;50.932;6.934;2022-07-18T11:55:49;2.22;;;1.40;;
12812;SDS011;6471;50.932;6.934;2022-07-18T11:58:15;1.70;;;1.60;;
12812;SDS011;6471;50.932;6.934;2022-07-18T12:00:43;3.70;;;1.73;;
12812;SDS011;6471;50.932;6.934;2022-07-18T12:03:13;2.20;;;1.90;;
12812;SDS011;6471;50.932;6.934;2022-07-18T12:05:43;1.70;;;1.60;;
12812;SDS011;6471;50.932;6.934;2022-07-18T12:21:39;1.60;;;1.42;;
12812;SDS011;6471;50.932;6.934;2022-07-18T12:24:18;1.50;;;1.40;;
12812;SDS011;6471;50.932;6.934;2022-07-18T12:26:45;2.78;;;1.40;;
12812;SDS011;6471;50.932;6.934;2022-07-18T12:29:11;3.08;;;1.60;;
12812;SDS011;6471;50.932;6.934;2022-07-18T12:31:41;2.30;;;1.40;;
12812;SDS011;6471;50.932;6.934;2022-07-18T12:34:16;2.55;;;1.40;;
12812;SDS011;6471;50.932;6.934;2022-07-18T12:36:56;2.53;;;1.30;;
12812;SDS011;6471;50.932;6.934;2022-07-18T12:39:29;1.42;;;1.30;;
12812;SDS011;6471;50.932;6.934;2022-07-18T12:41:56;2.45;;;1.50;;
12812;SDS011;6471;50.932;6.934;2022-07-18T12:44:22;2.30;;;1.35;;
12812;SDS011;6471;50.932;6.934;2022-07-18T12:46:49;1.95;;;1.30;;
12812;SDS011;6471;50.932;6.934;2022-07-18T12:49:15;1.90;;;1.60;;
12812;SDS011;6471;50.932;6.934;2022-07-18T12:51:41;1.95;;;1.60;;
12812;SDS011;6471;50.932;6.934;2022-07-18T12:54:07;2.55;;;1.50;;
12812;SDS011;6471;50.932;6.934;2022-07-18T12:56:34;2.20;;;1.40;;
12812;SDS011;6471;50.932;6.934;2022-07-18T12:59:00;1.98;;;1.50;;
12812;SDS011;6471;50.932;6.934;2022-07-18T13:01:26;1.95;;;1.42;;
12812;SDS011;6471;50.932;6.934;2022-07-18T13:03:52;1.35;;;1.20;;
12812;SDS011;6471;50.932;6.934;2022-07-18T13:06:18;1.75;;;1.30;;
12812;SDS011;6471;50.932;6.934;2022-07-18T13:08:44;2.65;;;1.33;;
12812;SDS011;6471;50.932;6.934;2022-07-18T13:11:10;1.73;;;1.20;;
12812;SDS011;6471;50.932;6.934;2022-07-18T13:13:36;4.88;;;1.55;;
12812;SDS011;6471;50.932;6.934;2022-07-18T13:16:03;1.90;;;1.35;;
12812;SDS011;6471;50.932;6.934;2022-07-18T13:18:29;1.52;;;1.40;;
12812;SDS011;6471;50.932;6.934;2022-07-18T13:20:55;1.45;;;1.35;;
12812;SDS011;6471;50.932;6.934;2022-07-18T13:23:21;1.40;;;1.30;;
12812;SDS011;6471;50.932;6.934;2022-07-18T13:25:47;2.03;;;1.33;;
12812;SDS011;6471;50.932;6.934;2022-07-18T13:28:13;3.63;;;1.67;;
12812;SDS011;6471;50.932;6.934;2022-07-18T13:30:39;2.50;;;1.50;;
12812;SDS011;6471;50.932;6.934;2022-07-18T13:33:05;2.45;;;1.40;;
12812;SDS011;6471;50.932;6.934;2022-07-18T13:35:31;1.80;;;1.50;;
12812;SDS011;6471;50.932;6.934;2022-07-18T13:37:57;1.90;;;1.40;;
12812;SDS011;6471;50.932;6.934;2022-07-18T13:40:23;3.88;;;1.50;;
12812;SDS011;6471;50.932;6.934;2022-07-18T13:42:50;2.25;;;1.52;;
12812;SDS011;6471;50.932;6.934;2022-07-18T13:45:16;1.70;;;1.30;;
12812;SDS011;6471;50.932;6.934;2022-07-18T13:47:45;1.65;;;1.30;;
12812;SDS011;6471;50.932;6.934;2022-07-18T13:50:11;1.90;;;1.40;;
12812;SDS011;6471;50.932;6.934;2022-07-18T13:52:38;1.23;;;1.13;;
12812;SDS011;6471;50.932;6.934;2022-07-18T13:55:04;1.70;;;1.30;;
12812;SDS011;6471;50.932;6.934;2022-07-18T13:57:30;1.70;;;1.35;;
12812;SDS011;6471;50.932;6.934;2022-07-18T13:59:56;1.60;;;1.30;;
12812;SDS011;6471;50.932;6.934;2022-07-18T14:02:22;1.50;;;1.38;;
12812;SDS011;6471;50.932;6.934;2022-07-18T14:04:49;1.33;;;1.20;;
12812;SDS011;6471;50.932;6.934;2022-07-18T14:07:15;2.67;;;1.40;;
12812;SDS011;6471;50.932;6.934;2022-07-18T14:09:43;1.40;;;1.30;;
12812;SDS011;6471;50.932;6.934;2022-07-18T14:12:09;1.65;;;1.40;;
12812;SDS011;6471;50.932;6.934;2022-07-18T14:14:35;1.40;;;1.30;;
12812;SDS011;6471;50.932;6.934;2022-07-18T14:17:01;1.65;;;1.40;;
12812;SDS011;6471;50.932;6.934;2022-07-18T14:19:27;2.28;;;1.30;;
12812;SDS011;6471;50.932;6.934;2022-07-18T14:21:53;1.88;;;1.35;;
12812;SDS011;6471;50.932;6.934;2022-07-18T14:24:20;2.13;;;1.48;;
12812;SDS011;6471;50.932;6.934;2022-07-18T14:26:46;2.25;;;1.30;;
12812;SDS011;6471;50.932;6.934;2022-07-18T14:29:12;1.42;;;1.27;;
12812;SDS011;6471;50.932;6.934;2022-07-18T14:31:39;2.70;;;1.30;;
12812;SDS011;6471;50.932;6.934;2022-07-18T14:34:05;2.15;;;1.50;;
12812;SDS011;6471;50.932;6.934;2022-07-18T14:36:31;3.03;;;1.50;;
12812;SDS011;6471;50.932;6.934;2022-07-18T14:38:57;2.15;;;1.40;;
12812;SDS011;6471;50.932;6.934;2022-07-18T14:41:23;2.05;;;1.38;;
12812;SDS011;6471;50.932;6.934;2022-07-18T14:43:49;3.95;;;1.58;;
12812;SDS011;6471;50.932;6.934;2022-07-18T14:46:15;3.05;;;1.73;;
12812;SDS011;6471;50.932;6.934;2022-07-18T14:48:41;5.28;;;1.73;;
12812;SDS011;6471;50.932;6.934;2022-07-18T14:51:07;2.28;;;1.55;;
12812;SDS011;6471;50.932;6.934;2022-07-18T14:53:33;2.92;;;1.70;;
12812;SDS011;6471;50.932;6.934;2022-07-18T14:56:00;2.35;;;1.50;;
12812;SDS011;6471;50.932;6.934;2022-07-18T14:58:26;3.28;;;1.60;;
12812;SDS011;6471;50.932;6.934;2022-07-18T15:00:52;2.00;;;1.67;;
12812;SDS011;6471;50.932;6.934;2022-07-18T15:03:18;1.50;;;1.30;;
12812;SDS011;6471;50.932;6.934;2022-07-18T15:05:44;1.67;;;1.27;;
12812;SDS011;6471;50.932;6.934;2022-07-18T15:08:10;1.70;;;1.50;;
12812;SDS011;6471;50.932;6.934;2022-07-18T15:10:36;2.45;;;1.35;;
12812;SDS011;6471;50.932;6.934;2022-07-18T15:13:02;1.65;;;1.35;;
12812;SDS011;6471;50.932;6.934;2022-07-18T15:15:28;2.28;;;1.42;;
12812;SDS011;6471;50.932;6.934;2022-07-18T15:17:54;2.20;;;1.48;;
12812;SDS011;6471;50.932;6.934;2022-07-18T15:20:21;3.13;;;2.20;;
12812;SDS011;6471;50.932;6.934;2022-07-18T15:22:47;2.65;;;1.98;;
12812;SDS011;6471;50.932;6.934;2022-07-18T15:25:13;4.85;;;2.10;;
12812;SDS011;6471;50.932;6.934;2022-07-18T15:27:39;3.33;;;1.75;;
12812;SDS011;6471;50.932;6.934;2022-07-18T15:30:05;4.20;;;1.80;;
12812;SDS011;6471;50.932;6.934;2022-07-18T15:32:32;2.30;;;1.60;;
12812;SDS011;6471;50.932;6.934;2022-07-18T15:34:58;1.77;;;1.40;;